createdAt,value
2023-05-13T00:02:22.828Z,4.10
2023-05-13T00:05:25.650Z,3.67
2023-05-13T00:08:28.411Z,3.47
2023-05-13T00:11:32.553Z,3.60
2023-05-13T00:14:35.443Z,3.30
2023-05-13T00:17:38.241Z,3.83
2023-05-13T00:20:41.070Z,3.93
2023-05-13T00:23:43.845Z,3.83
2023-05-13T00:26:47.990Z,4.10
2023-05-13T00:29:50.794Z,3.63
2023-05-13T00:32:53.616Z,3.80
2023-05-13T00:35:56.445Z,5.47
2023-05-13T00:38:59.348Z,3.37
2023-05-13T00:42:04.473Z,4.47
2023-05-13T00:45:08.237Z,5.30
2023-05-13T00:48:11.402Z,4.97
2023-05-13T00:51:14.456Z,5.50
2023-05-13T00:54:17.213Z,5.30
2023-05-13T00:57:21.953Z,4.73
2023-05-13T01:00:24.837Z,5.47
2023-05-13T01:03:44.126Z,5.70
2023-05-13T01:06:53.457Z,6.43
2023-05-13T01:10:03.608Z,6.20
2023-05-13T01:13:11.093Z,6.90
2023-05-13T01:16:19.487Z,6.93
2023-05-13T01:19:35.594Z,6.80
2023-05-13T01:22:39.731Z,6.60
2023-05-13T01:25:42.624Z,8.20
2023-05-13T01:28:45.471Z,8.67
2023-05-13T01:31:49.939Z,8.07
2023-05-13T01:34:54.085Z,7.83
2023-05-13T01:37:58.903Z,8.60
2023-05-13T01:41:01.905Z,8.87
2023-05-13T01:44:04.895Z,8.83
2023-05-13T01:47:07.756Z,9.03
2023-05-13T01:50:11.332Z,9.63
2023-05-13T01:53:15.854Z,9.10
2023-05-13T01:56:18.671Z,9.60
2023-05-13T01:59:21.454Z,8.37
2023-05-13T02:02:24.251Z,8.70
2023-05-13T02:05:27.070Z,9.70
2023-05-13T02:08:31.416Z,9.70
2023-05-13T02:11:35.626Z,9.00
2023-05-13T02:14:39.566Z,9.00
2023-05-13T02:17:42.402Z,9.77
2023-05-13T02:20:45.620Z,10.00
2023-05-13T02:23:50.000Z,9.77
2023-05-13T02:26:52.980Z,9.10
2023-05-13T02:29:55.785Z,9.30
2023-05-13T02:32:58.932Z,10.53
2023-05-13T02:36:01.780Z,10.73
2023-05-13T02:39:05.917Z,10.33
2023-05-13T02:42:08.814Z,10.93
2023-05-13T02:45:12.577Z,11.77
2023-05-13T02:48:16.009Z,11.00
2023-05-13T02:51:18.786Z,11.60
2023-05-13T02:54:22.888Z,12.33
2023-05-13T02:57:25.661Z,14.20
2023-05-13T03:00:28.705Z,12.40
2023-05-13T03:03:31.603Z,13.10
2023-05-13T03:06:34.532Z,12.73
2023-05-13T03:09:42.112Z,12.77
2023-05-13T03:12:44.921Z,13.00
2023-05-13T03:15:47.734Z,14.53
2023-05-13T03:18:50.563Z,12.93
2023-05-13T03:21:53.938Z,12.77
2023-05-13T03:24:58.327Z,11.43
2023-05-13T03:28:01.224Z,13.07
2023-05-13T03:31:04.257Z,12.43
2023-05-13T03:34:07.090Z,11.90
2023-05-13T03:37:09.885Z,12.40
2023-05-13T03:40:14.330Z,12.57
2023-05-13T03:43:17.143Z,12.70
2023-05-13T03:46:19.961Z,12.13
2023-05-13T03:49:22.764Z,12.73
2023-05-13T03:52:25.547Z,11.50
2023-05-13T03:55:32.363Z,12.73
2023-05-13T03:58:35.240Z,12.53
2023-05-13T04:01:38.016Z,11.93
2023-05-13T04:04:40.761Z,12.40
2023-05-13T04:07:43.568Z,12.33
2023-05-13T04:10:48.131Z,13.37
2023-05-13T04:13:51.281Z,14.00
2023-05-13T04:16:54.520Z,14.03
2023-05-13T04:19:57.787Z,13.60
2023-05-13T04:23:01.602Z,14.20
2023-05-13T04:26:06.099Z,15.87
2023-05-13T04:29:09.270Z,15.00
2023-05-13T04:32:15.878Z,15.03
2023-05-13T04:35:20.096Z,14.80
2023-05-13T04:38:23.347Z,16.47
2023-05-13T04:41:27.898Z,16.00
2023-05-13T04:44:31.104Z,16.47
2023-05-13T04:47:35.296Z,17.10
2023-05-13T04:50:38.742Z,16.43
2023-05-13T04:53:42.070Z,16.80
2023-05-13T04:56:46.371Z,17.37
2023-05-13T04:59:49.193Z,18.30
2023-05-13T05:02:52.070Z,18.07
2023-05-13T05:05:54.891Z,18.43
2023-05-13T05:08:57.654Z,16.33
2023-05-13T05:12:01.817Z,16.13
2023-05-13T05:15:04.886Z,16.83
2023-05-13T05:18:07.945Z,17.70
2023-05-13T05:21:11.309Z,17.13
2023-05-13T05:24:14.142Z,17.27
2023-05-13T05:27:19.293Z,16.87
2023-05-13T05:30:22.557Z,16.17
2023-05-13T05:33:25.590Z,16.40
2023-05-13T05:36:28.366Z,16.93
2023-05-13T05:39:31.155Z,15.50
2023-05-13T05:42:35.611Z,16.90
2023-05-13T05:45:39.143Z,16.70
2023-05-13T05:48:41.941Z,16.20
2023-05-13T05:51:45.026Z,14.10
2023-05-13T05:54:47.757Z,14.60
2023-05-13T05:57:52.316Z,14.60
2023-05-13T06:00:55.562Z,14.10
2023-05-13T06:03:58.493Z,13.37
2023-05-13T06:07:01.437Z,14.20
2023-05-13T06:10:06.365Z,12.93
2023-05-13T06:13:11.777Z,13.57
2023-05-13T06:16:14.674Z,11.63
2023-05-13T06:19:17.479Z,12.73
2023-05-13T06:22:20.279Z,11.67
2023-05-13T06:25:23.022Z,13.17
2023-05-13T06:28:27.119Z,11.97
2023-05-13T06:31:29.889Z,11.67
2023-05-13T06:34:32.803Z,10.70
2023-05-13T06:37:35.572Z,10.87
2023-05-13T06:40:38.497Z,10.27
2023-05-13T06:43:45.507Z,9.40
2023-05-13T06:46:48.718Z,10.13
2023-05-13T06:49:51.941Z,9.03
2023-05-13T06:52:55.207Z,9.57
2023-05-13T06:55:58.465Z,9.17
2023-05-13T06:59:03.183Z,9.03
2023-05-13T07:02:09.635Z,10.50
2023-05-13T07:05:13.461Z,9.40
2023-05-13T07:08:17.979Z,9.83
2023-05-13T07:11:21.336Z,11.10
2023-05-13T07:14:26.145Z,10.00
2023-05-13T07:17:31.259Z,10.43
2023-05-13T07:20:34.598Z,9.80
2023-05-13T07:23:37.771Z,10.37
2023-05-13T07:26:40.935Z,11.47
2023-05-13T07:29:45.453Z,11.43
2023-05-13T07:32:48.661Z,10.73
2023-05-13T07:35:51.909Z,11.00
2023-05-13T07:38:55.126Z,9.80
2023-05-13T07:41:58.565Z,10.87
2023-05-13T07:45:03.465Z,10.53
2023-05-13T07:48:07.351Z,10.90
2023-05-13T07:51:11.055Z,12.00
2023-05-13T07:54:14.228Z,11.43
2023-05-13T07:57:17.418Z,11.73
2023-05-13T08:00:22.302Z,11.97
2023-05-13T08:03:25.690Z,12.27
2023-05-13T08:06:28.939Z,10.73
2023-05-13T08:09:32.140Z,11.47
2023-05-13T08:12:35.359Z,12.07
2023-05-13T08:15:39.890Z,11.03
2023-05-13T08:18:43.116Z,11.07
2023-05-13T08:21:46.335Z,10.63
2023-05-13T08:24:49.514Z,10.73
2023-05-13T08:27:52.775Z,11.27
2023-05-13T08:31:02.369Z,10.07
2023-05-13T08:34:05.555Z,10.53
2023-05-13T08:37:08.741Z,9.37
2023-05-13T08:40:12.636Z,8.83
2023-05-13T08:43:16.927Z,8.57
2023-05-13T08:46:22.888Z,9.03
2023-05-13T08:49:26.154Z,7.80
2023-05-13T08:52:29.727Z,7.87
2023-05-13T08:55:33.104Z,7.33
2023-05-13T08:58:36.342Z,8.83
2023-05-13T09:01:41.110Z,9.17
2023-05-13T09:04:44.985Z,10.40
2023-05-13T09:07:48.249Z,8.87
2023-05-13T09:10:51.745Z,8.93
2023-05-13T09:13:58.757Z,8.07
2023-05-13T09:17:04.135Z,7.47
2023-05-13T09:20:09.149Z,7.93
2023-05-13T09:23:12.516Z,7.17
2023-05-13T09:26:28.497Z,7.20
2023-05-13T09:29:31.690Z,7.43
2023-05-13T09:32:36.260Z,7.30
2023-05-13T09:35:40.910Z,8.27
2023-05-13T09:38:44.134Z,8.33
2023-05-13T09:41:47.769Z,7.37
2023-05-13T09:44:51.144Z,7.63
2023-05-13T09:47:57.403Z,7.63
2023-05-13T09:51:00.903Z,6.97
2023-05-13T09:54:07.551Z,6.53
2023-05-13T09:57:14.565Z,6.93
2023-05-13T10:00:31.688Z,7.17
2023-05-13T10:03:37.484Z,7.40
2023-05-13T10:06:40.809Z,6.70
2023-05-13T10:09:44.515Z,7.27
2023-05-13T10:12:48.718Z,7.57
2023-05-13T10:15:52.596Z,6.80
2023-05-13T10:18:58.233Z,8.10
2023-05-13T10:22:02.131Z,7.63
2023-05-13T10:25:05.994Z,7.33
2023-05-13T10:28:10.738Z,7.80
2023-05-13T10:31:13.588Z,7.23
2023-05-13T10:34:18.215Z,6.97
2023-05-13T10:37:46.752Z,6.43
2023-05-13T10:41:09.861Z,6.83
2023-05-13T10:44:12.771Z,6.13
2023-05-13T10:47:18.287Z,6.73
2023-05-13T10:50:26.616Z,6.57
2023-05-13T10:53:31.115Z,5.97
2023-05-13T10:56:34.143Z,5.87
2023-05-13T10:59:38.759Z,5.30
2023-05-13T11:02:41.718Z,5.30
2023-05-13T11:06:00.653Z,5.23
2023-05-13T11:09:06.753Z,4.87
2023-05-13T11:12:16.551Z,4.50
2023-05-13T11:15:23.805Z,4.77
2023-05-13T11:18:31.415Z,4.70
2023-05-13T11:21:39.501Z,4.67
2023-05-13T11:24:45.527Z,5.00
2023-05-13T11:27:48.302Z,4.30
2023-05-13T11:31:16.023Z,5.10
2023-05-13T11:34:19.606Z,4.27
2023-05-13T11:37:24.086Z,4.27
2023-05-13T11:40:28.341Z,4.10
2023-05-13T11:43:33.488Z,3.20
2023-05-13T11:46:37.578Z,3.90
2023-05-13T11:49:42.039Z,4.20
2023-05-13T11:52:46.353Z,4.30
2023-05-13T11:55:49.869Z,4.37
2023-05-13T11:58:53.287Z,4.37
2023-05-13T12:02:03.141Z,3.63
2023-05-13T12:05:07.213Z,4.13
2023-05-13T12:08:12.298Z,3.33
2023-05-13T12:11:15.555Z,2.80
2023-05-13T12:14:22.966Z,2.50
2023-05-13T12:17:26.587Z,2.93
2023-05-13T12:20:30.446Z,2.30
2023-05-13T12:23:41.623Z,2.63
2023-05-13T12:26:44.806Z,1.87
2023-05-13T12:29:48.002Z,2.17
2023-05-13T12:32:51.475Z,1.90
2023-05-13T12:35:55.650Z,1.93
2023-05-13T12:39:01.187Z,2.37
2023-05-13T12:42:04.615Z,2.33
2023-05-13T12:45:08.203Z,2.00
2023-05-13T12:48:11.949Z,1.60
2023-05-13T12:51:15.900Z,2.33
2023-05-13T12:54:21.543Z,2.40
2023-05-13T12:57:24.787Z,2.13
2023-05-13T13:00:28.326Z,2.10
2023-05-13T13:03:31.624Z,2.70
2023-05-13T13:06:34.897Z,2.37
2023-05-13T13:09:39.723Z,2.03
2023-05-13T13:12:42.894Z,2.27
2023-05-13T13:15:46.122Z,2.37
2023-05-13T13:18:50.934Z,2.17
2023-05-13T13:21:55.075Z,1.93
2023-05-13T13:24:59.598Z,2.30
2023-05-13T13:28:02.825Z,2.23
2023-05-13T13:31:07.636Z,2.17
2023-05-13T13:34:12.049Z,2.10
2023-05-13T13:37:15.249Z,1.87
2023-05-13T13:40:20.075Z,2.00
2023-05-13T13:43:23.484Z,1.73
2023-05-13T13:46:26.882Z,1.87
2023-05-13T13:49:30.246Z,3.17
2023-05-13T13:52:33.478Z,2.50
2023-05-13T13:55:38.053Z,2.23
2023-05-13T13:58:41.532Z,1.93
2023-05-13T14:01:44.886Z,2.27
2023-05-13T14:04:48.122Z,2.63
2023-05-13T14:07:53.999Z,2.00
2023-05-13T14:10:58.814Z,2.60
2023-05-13T14:14:02.030Z,1.90
2023-05-13T14:17:05.382Z,2.20
2023-05-13T14:20:10.220Z,2.00
2023-05-13T14:23:13.429Z,2.07
2023-05-13T14:26:18.078Z,1.77
2023-05-13T14:29:21.690Z,1.70
2023-05-13T14:32:24.998Z,1.80
2023-05-13T14:35:28.373Z,2.13
2023-05-13T14:38:31.893Z,1.77
2023-05-13T14:41:36.762Z,1.67
2023-05-13T14:44:41.444Z,2.37
2023-05-13T14:47:44.810Z,1.70
2023-05-13T14:50:48.474Z,2.63
2023-05-13T14:53:51.681Z,2.13
2023-05-13T14:56:56.232Z,2.20
2023-05-13T15:00:00.144Z,2.37
2023-05-13T15:03:03.680Z,2.23
2023-05-13T15:06:07.452Z,2.30
2023-05-13T15:09:10.688Z,2.43
2023-05-13T15:12:15.271Z,2.37
2023-05-13T15:15:18.578Z,2.30
2023-05-13T15:18:22.092Z,2.17
2023-05-13T15:21:26.399Z,2.87
2023-05-13T15:24:29.892Z,2.70
2023-05-13T15:27:34.810Z,2.00
2023-05-13T15:30:38.586Z,2.40
2023-05-13T15:33:43.808Z,2.80
2023-05-13T15:36:48.268Z,2.10
2023-05-13T15:39:51.514Z,2.10
2023-05-13T15:42:56.176Z,2.30
2023-05-13T15:45:59.924Z,2.40
2023-05-13T15:49:03.281Z,1.43
2023-05-13T15:52:07.341Z,1.70
2023-05-13T15:55:11.228Z,1.80
2023-05-13T15:58:15.909Z,1.60
2023-05-13T16:01:19.188Z,22.70
2023-05-13T16:04:22.445Z,2.73
2023-05-13T16:07:25.731Z,1.93
2023-05-13T16:10:28.924Z,2.30
2023-05-13T16:13:33.563Z,2.10
2023-05-13T16:16:36.851Z,1.50
2023-05-13T16:19:40.157Z,1.53
2023-05-13T16:22:43.434Z,2.23
2023-05-13T16:25:46.685Z,2.60
2023-05-13T16:28:51.914Z,2.17
2023-05-13T16:31:55.163Z,1.90
2023-05-13T16:34:58.766Z,2.30
2023-05-13T16:38:02.007Z,1.20
2023-05-13T16:41:05.714Z,1.30
2023-05-13T16:44:10.545Z,1.10
2023-05-13T16:47:14.210Z,1.50
2023-05-13T16:50:17.392Z,0.80
2023-05-13T16:53:22.215Z,1.03
2023-05-13T16:56:26.414Z,1.07
2023-05-13T16:59:30.970Z,1.23
2023-05-13T17:02:34.510Z,1.80
2023-05-13T17:05:37.972Z,1.10
2023-05-13T17:08:41.342Z,1.07
2023-05-13T17:11:44.630Z,1.00
2023-05-13T17:14:49.169Z,0.97
2023-05-13T17:17:52.397Z,1.40
2023-05-13T17:20:55.935Z,1.53
2023-05-13T17:23:59.149Z,1.30
2023-05-13T17:27:02.623Z,1.10
2023-05-13T17:30:07.844Z,0.80
2023-05-13T17:33:11.072Z,1.00
2023-05-13T17:36:14.307Z,1.13
2023-05-13T17:39:17.509Z,1.53
2023-05-13T17:42:20.667Z,1.33
2023-05-13T17:45:25.246Z,1.47
2023-05-13T17:48:28.681Z,1.10
2023-05-13T17:51:32.281Z,1.00
2023-05-13T17:54:35.883Z,1.17
2023-05-13T17:57:39.104Z,1.10
2023-05-13T18:00:43.711Z,1.17
2023-05-13T18:03:46.965Z,1.37
2023-05-13T18:06:50.217Z,1.20
2023-05-13T18:09:53.443Z,1.20
2023-05-13T18:12:56.673Z,1.50
2023-05-13T18:16:01.683Z,1.30
2023-05-13T18:19:05.995Z,1.53
2023-05-13T18:22:09.741Z,1.97
2023-05-13T18:25:13.170Z,2.17
2023-05-13T18:28:16.391Z,2.03
2023-05-13T18:31:20.969Z,1.40
2023-05-13T18:34:24.232Z,2.10
2023-05-13T18:37:27.444Z,1.47
2023-05-13T18:40:31.110Z,1.57
2023-05-13T18:43:34.344Z,1.40
2023-05-13T18:46:38.959Z,1.97
2023-05-13T18:49:42.168Z,1.37
2023-05-13T18:52:46.028Z,1.60
2023-05-13T18:55:49.211Z,1.53
2023-05-13T18:58:52.411Z,2.33
2023-05-13T19:01:57.451Z,1.87
2023-05-13T19:05:01.228Z,2.00
2023-05-13T19:08:05.256Z,1.90
2023-05-13T19:11:08.489Z,1.80
2023-05-13T19:14:11.702Z,1.93
2023-05-13T19:17:16.336Z,1.80
2023-05-13T19:20:19.755Z,2.47
2023-05-13T19:23:23.026Z,3.00
2023-05-13T19:26:26.259Z,2.03
2023-05-13T19:29:29.822Z,2.53
2023-05-13T19:32:34.377Z,1.90
2023-05-13T19:35:37.662Z,2.23
2023-05-13T19:38:40.890Z,2.27
2023-05-13T19:41:44.098Z,2.47
2023-05-13T19:44:47.539Z,2.33
2023-05-13T19:47:52.155Z,1.80
2023-05-13T19:50:57.038Z,2.00
2023-05-13T19:54:00.224Z,2.23
2023-05-13T19:57:03.480Z,1.67
2023-05-13T20:00:07.532Z,2.43
2023-05-13T20:03:12.225Z,1.80
2023-05-13T20:06:15.473Z,1.93
2023-05-13T20:09:18.657Z,1.60
2023-05-13T20:12:21.894Z,1.13
2023-05-13T20:15:25.082Z,0.90
2023-05-13T20:18:29.724Z,0.93
2023-05-13T20:21:33.063Z,0.83
2023-05-13T20:24:36.253Z,1.00
2023-05-13T20:27:39.428Z,0.67
2023-05-13T20:30:42.921Z,1.00
2023-05-13T20:33:47.441Z,1.27
2023-05-13T20:36:50.691Z,0.93
2023-05-13T20:39:54.032Z,0.70
2023-05-13T20:42:59.136Z,1.70
2023-05-13T20:46:03.348Z,1.80
2023-05-13T20:49:08.053Z,2.10
2023-05-13T20:52:11.242Z,2.50
2023-05-13T20:55:15.431Z,2.77
2023-05-13T20:58:18.251Z,2.80
2023-05-13T21:01:21.110Z,2.63
2023-05-13T21:04:26.369Z,3.30
2023-05-13T21:07:29.150Z,3.27
2023-05-13T21:10:31.939Z,3.03
2023-05-13T21:13:34.874Z,3.33
2023-05-13T21:16:37.691Z,3.30
2023-05-13T21:19:41.811Z,3.77
2023-05-13T21:22:44.594Z,3.50
2023-05-13T21:25:47.381Z,3.73
2023-05-13T21:28:50.642Z,4.77
2023-05-13T21:31:54.466Z,4.60
2023-05-13T21:34:58.567Z,5.00
2023-05-13T21:38:11.389Z,4.83
2023-05-13T21:41:15.283Z,5.40
2023-05-13T21:44:18.045Z,5.90
2023-05-13T21:47:21.013Z,6.33
2023-05-13T21:50:25.200Z,7.07
2023-05-13T21:53:28.098Z,7.07
2023-05-13T21:56:30.881Z,6.83
2023-05-13T21:59:33.665Z,6.40
2023-05-13T22:02:36.541Z,9.00
2023-05-13T22:05:43.978Z,8.80
2023-05-13T22:08:46.992Z,9.10
2023-05-13T22:11:49.766Z,9.70
2023-05-13T22:14:53.553Z,9.23
2023-05-13T22:17:56.444Z,10.60
2023-05-13T22:21:00.809Z,10.67
2023-05-13T22:24:04.949Z,11.97
2023-05-13T22:27:08.206Z,12.23
2023-05-13T22:30:11.444Z,12.97
2023-05-13T22:33:14.258Z,13.80
2023-05-13T22:36:18.387Z,12.87
2023-05-13T22:39:21.379Z,11.50
2023-05-13T22:42:24.161Z,12.27
2023-05-13T22:45:27.235Z,11.70
2023-05-13T22:48:30.089Z,11.57
2023-05-13T22:51:35.087Z,12.47
2023-05-13T22:54:37.857Z,11.00
2023-05-13T22:57:40.883Z,11.70
2023-05-13T23:00:43.687Z,12.17
2023-05-13T23:03:46.633Z,12.63
2023-05-13T23:06:50.790Z,12.37
2023-05-13T23:09:53.601Z,11.10
2023-05-13T23:12:56.408Z,11.07
2023-05-13T23:15:59.186Z,13.53
2023-05-13T23:19:02.282Z,11.17
2023-05-13T23:22:06.528Z,11.63
2023-05-13T23:25:10.254Z,11.73
2023-05-13T23:28:13.475Z,11.83
2023-05-13T23:31:16.426Z,12.37
2023-05-13T23:34:19.199Z,12.43
2023-05-13T23:37:23.319Z,9.50
2023-05-13T23:40:26.558Z,11.80
2023-05-13T23:43:29.350Z,10.30
2023-05-13T23:46:32.238Z,10.60
2023-05-13T23:49:35.079Z,11.23
2023-05-13T23:52:39.202Z,10.73
2023-05-13T23:55:41.970Z,10.73
2023-05-13T23:58:44.893Z,10.77
